createdAt,value
2018-05-31T00:03:00.000Z,98717
2018-05-31T00:08:00.000Z,98725
2018-05-31T00:13:00.000Z,98725
2018-05-31T00:18:00.000Z,98724
2018-05-31T00:23:00.000Z,98720
2018-05-31T00:28:00.000Z,98712
2018-05-31T00:33:00.000Z,98707
2018-05-31T00:38:00.000Z,98699
2018-05-31T00:43:00.000Z,98690
2018-05-31T00:48:00.000Z,98687
2018-05-31T00:53:00.000Z,98686
2018-05-31T00:58:00.000Z,98684
2018-05-31T01:03:00.000Z,98683
2018-05-31T01:08:00.000Z,98680
2018-05-31T01:13:00.000Z,98678
2018-05-31T01:18:00.000Z,98673
2018-05-31T01:23:00.000Z,98681
2018-05-31T01:28:00.000Z,98686
2018-05-31T01:33:00.000Z,98684
2018-05-31T01:38:00.000Z,98673
2018-05-31T01:43:00.000Z,98671
2018-05-31T01:48:00.000Z,98672
2018-05-31T01:53:00.000Z,98675
2018-05-31T01:58:00.000Z,98680
2018-05-31T02:03:00.000Z,98685
2018-05-31T02:08:00.000Z,98675
2018-05-31T02:13:00.000Z,98669
2018-05-31T02:18:00.000Z,98656
2018-05-31T02:23:00.000Z,98657
2018-05-31T02:28:00.000Z,98650
2018-05-31T02:33:00.000Z,98648
2018-05-31T02:38:00.000Z,98644
2018-05-31T02:43:00.000Z,98650
2018-05-31T02:48:00.000Z,98661
2018-05-31T02:53:00.000Z,98661
2018-05-31T02:58:00.000Z,98665
2018-05-31T03:03:00.000Z,98661
2018-05-31T03:08:00.000Z,98661
2018-05-31T03:13:00.000Z,98663
2018-05-31T03:18:00.000Z,98675
2018-05-31T03:23:00.000Z,98681
2018-05-31T03:28:00.000Z,98682
2018-05-31T03:33:00.000Z,98684
2018-05-31T03:38:00.000Z,98683
2018-05-31T03:43:00.000Z,98684
2018-05-31T03:48:00.000Z,98681
2018-05-31T03:53:00.000Z,98682
2018-05-31T03:58:00.000Z,98685
2018-05-31T04:03:00.000Z,98685
2018-05-31T04:08:00.000Z,98698
2018-05-31T04:13:00.000Z,98708
2018-05-31T04:18:00.000Z,98710
2018-05-31T04:23:00.000Z,98712
2018-05-31T04:28:00.000Z,98708
2018-05-31T04:33:00.000Z,98711
2018-05-31T04:38:00.000Z,98704
2018-05-31T04:43:00.000Z,98710
2018-05-31T04:48:00.000Z,98713
2018-05-31T04:53:00.000Z,98720
2018-05-31T04:58:00.000Z,98719
2018-05-31T05:03:00.000Z,98722
2018-05-31T05:09:00.000Z,98729
2018-05-31T05:14:00.000Z,98728
2018-05-31T05:19:00.000Z,98721
2018-05-31T05:24:00.000Z,98720
2018-05-31T05:29:00.000Z,98729
2018-05-31T05:34:00.000Z,98719
2018-05-31T05:39:00.000Z,98713
2018-05-31T05:44:00.000Z,98712
2018-05-31T05:49:00.000Z,98723
2018-05-31T05:54:00.000Z,98726
2018-05-31T05:59:00.000Z,98723
2018-05-31T06:04:00.000Z,98727
2018-05-31T06:09:00.000Z,98729
2018-05-31T06:14:00.000Z,98733
2018-05-31T06:19:00.000Z,98737
2018-05-31T06:24:00.000Z,98735
2018-05-31T06:29:00.000Z,98730
2018-05-31T06:34:00.000Z,98737
2018-05-31T06:39:00.000Z,98733
2018-05-31T06:44:00.000Z,98735
2018-05-31T06:49:00.000Z,98742
2018-05-31T06:54:00.000Z,98746
2018-05-31T06:59:00.000Z,98754
2018-05-31T07:04:00.000Z,98753
2018-05-31T07:09:00.000Z,98742
2018-05-31T07:14:00.000Z,98748
2018-05-31T07:19:00.000Z,98754
2018-05-31T07:24:00.000Z,98763
2018-05-31T07:29:00.000Z,98764
2018-05-31T07:34:00.000Z,98763
2018-05-31T07:39:00.000Z,98772
2018-05-31T07:44:00.000Z,98772
2018-05-31T07:49:00.000Z,98770
2018-05-31T07:54:00.000Z,98765
2018-05-31T07:59:00.000Z,98771
2018-05-31T08:04:00.000Z,98771
2018-05-31T08:09:00.000Z,98769
2018-05-31T08:14:00.000Z,98772
2018-05-31T08:19:00.000Z,98775
2018-05-31T08:24:00.000Z,98781
2018-05-31T08:29:00.000Z,98782
2018-05-31T08:34:00.000Z,98773
2018-05-31T08:39:00.000Z,98782
2018-05-31T08:44:00.000Z,98773
2018-05-31T08:49:00.000Z,98776
2018-05-31T08:54:00.000Z,98772
2018-05-31T08:59:00.000Z,98768
2018-05-31T09:04:00.000Z,98777
2018-05-31T09:09:00.000Z,98768
2018-05-31T09:14:00.000Z,98755
2018-05-31T09:19:00.000Z,98766
2018-05-31T09:24:00.000Z,98769
2018-05-31T09:29:00.000Z,98774
2018-05-31T09:34:00.000Z,98770
2018-05-31T09:39:00.000Z,98770
2018-05-31T09:44:00.000Z,98762
2018-05-31T09:49:00.000Z,98781
2018-05-31T09:54:00.000Z,98773
2018-05-31T09:59:00.000Z,98768
2018-05-31T10:04:00.000Z,98772
2018-05-31T10:09:00.000Z,98766
2018-05-31T10:14:00.000Z,98762
2018-05-31T10:19:00.000Z,98756
2018-05-31T10:24:00.000Z,98760
2018-05-31T10:29:00.000Z,98760
2018-05-31T10:34:00.000Z,98758
2018-05-31T10:39:00.000Z,98763
2018-05-31T10:44:00.000Z,98748
2018-05-31T10:49:00.000Z,98744
2018-05-31T10:54:00.000Z,98741
2018-05-31T10:59:00.000Z,98726
2018-05-31T11:04:00.000Z,98727
2018-05-31T11:10:00.000Z,98733
2018-05-31T11:15:00.000Z,98723
2018-05-31T11:20:00.000Z,98723
2018-05-31T11:25:00.000Z,98717
2018-05-31T11:30:00.000Z,98718
2018-05-31T11:35:00.000Z,98701
2018-05-31T11:40:00.000Z,98706
2018-05-31T11:45:00.000Z,98698
2018-05-31T11:50:00.000Z,98708
2018-05-31T11:55:00.000Z,98692
2018-05-31T12:00:00.000Z,98702
2018-05-31T12:05:00.000Z,98701
2018-05-31T12:10:00.000Z,98690
2018-05-31T12:15:00.000Z,98676
2018-05-31T12:20:00.000Z,98677
2018-05-31T12:25:00.000Z,98666
2018-05-31T12:30:00.000Z,98659
2018-05-31T12:35:00.000Z,98665
2018-05-31T12:40:00.000Z,98654
2018-05-31T12:45:00.000Z,98652
2018-05-31T12:50:00.000Z,98655
2018-05-31T12:55:00.000Z,98655
2018-05-31T13:00:00.000Z,98644
2018-05-31T13:05:00.000Z,98648
2018-05-31T13:10:00.000Z,98645
2018-05-31T13:15:00.000Z,98640
2018-05-31T13:20:00.000Z,98638
2018-05-31T13:25:00.000Z,98633
2018-05-31T13:30:00.000Z,98637
2018-05-31T13:35:00.000Z,98645
2018-05-31T13:40:00.000Z,98634
2018-05-31T13:45:00.000Z,98629
2018-05-31T13:50:00.000Z,98628
2018-05-31T13:55:00.000Z,98624
2018-05-31T14:00:00.000Z,98618
2018-05-31T14:05:00.000Z,98614
2018-05-31T14:10:00.000Z,98615
2018-05-31T14:15:00.000Z,98623
2018-05-31T14:20:00.000Z,98622
2018-05-31T14:25:00.000Z,98618
2018-05-31T14:30:00.000Z,98615
2018-05-31T14:35:00.000Z,98615
2018-05-31T14:40:00.000Z,98606
2018-05-31T14:45:00.000Z,98592
2018-05-31T14:50:00.000Z,98588
2018-05-31T14:55:00.000Z,98589
2018-05-31T15:00:00.000Z,98600
2018-05-31T15:05:00.000Z,98603
2018-05-31T15:10:00.000Z,98600
2018-05-31T15:15:00.000Z,98598
2018-05-31T15:20:00.000Z,98593
2018-05-31T15:25:00.000Z,98592
2018-05-31T15:30:00.000Z,98598
2018-05-31T15:35:00.000Z,98592
2018-05-31T15:40:00.000Z,98595
2018-05-31T15:45:00.000Z,98591
2018-05-31T15:50:00.000Z,98590
2018-05-31T15:55:00.000Z,98594
2018-05-31T16:00:00.000Z,98588
2018-05-31T16:05:00.000Z,98576
2018-05-31T16:10:00.000Z,98576
2018-05-31T16:15:00.000Z,98573
2018-05-31T16:20:00.000Z,98574
2018-05-31T16:25:00.000Z,98584
2018-05-31T16:30:00.000Z,98586
2018-05-31T16:35:00.000Z,98595
2018-05-31T16:40:00.000Z,98598
2018-05-31T16:45:00.000Z,98609
2018-05-31T16:50:00.000Z,98608
2018-05-31T16:55:00.000Z,98611
2018-05-31T17:00:00.000Z,98607
2018-05-31T17:05:00.000Z,98624
2018-05-31T17:10:00.000Z,98614
2018-05-31T17:15:00.000Z,98615
2018-05-31T17:20:00.000Z,98606
2018-05-31T17:26:00.000Z,98601
2018-05-31T17:31:00.000Z,98599
2018-05-31T17:36:00.000Z,98607
2018-05-31T17:41:00.000Z,98600
2018-05-31T17:46:00.000Z,98597
2018-05-31T17:51:00.000Z,98599
2018-05-31T17:56:00.000Z,98593
2018-05-31T18:01:00.000Z,98588
2018-05-31T18:06:00.000Z,98585
2018-05-31T18:11:00.000Z,98585
2018-05-31T18:16:00.000Z,98588
2018-05-31T18:21:00.000Z,98587
2018-05-31T18:26:00.000Z,98590
2018-05-31T18:31:00.000Z,98589
2018-05-31T18:36:00.000Z,98589
2018-05-31T18:41:00.000Z,98599
2018-05-31T18:46:00.000Z,98600
2018-05-31T18:51:00.000Z,98605
2018-05-31T18:56:00.000Z,98602
2018-05-31T19:01:00.000Z,98611
2018-05-31T19:06:00.000Z,98619
2018-05-31T19:11:00.000Z,98616
2018-05-31T19:16:00.000Z,98618
2018-05-31T19:21:00.000Z,98619
2018-05-31T19:26:00.000Z,98626
2018-05-31T19:31:00.000Z,98642
2018-05-31T19:36:00.000Z,98642
2018-05-31T19:41:00.000Z,98645
2018-05-31T19:46:00.000Z,98643
2018-05-31T19:51:00.000Z,98644
2018-05-31T19:56:00.000Z,98650
2018-05-31T20:01:00.000Z,98657
2018-05-31T20:06:00.000Z,98651
2018-05-31T20:11:00.000Z,98659
2018-05-31T20:16:00.000Z,98665
2018-05-31T20:21:00.000Z,98665
2018-05-31T20:26:00.000Z,98663
2018-05-31T20:31:00.000Z,98663
2018-05-31T20:36:00.000Z,98660
2018-05-31T20:41:00.000Z,98670
2018-05-31T20:46:00.000Z,98664
2018-05-31T20:51:00.000Z,98667
2018-05-31T20:56:00.000Z,98663
2018-05-31T21:01:00.000Z,98663
2018-05-31T21:06:00.000Z,98671
2018-05-31T21:11:00.000Z,98666
2018-05-31T21:16:00.000Z,98672
2018-05-31T21:21:00.000Z,98678
2018-05-31T21:26:00.000Z,98675
2018-05-31T21:31:00.000Z,98675
2018-05-31T21:36:00.000Z,98678
2018-05-31T21:41:00.000Z,98674
2018-05-31T21:46:00.000Z,98668
2018-05-31T21:51:00.000Z,98664
2018-05-31T21:56:00.000Z,98661
2018-05-31T22:01:00.000Z,98666
2018-05-31T22:06:00.000Z,98659
2018-05-31T22:11:00.000Z,98655
2018-05-31T22:16:00.000Z,98655
2018-05-31T22:21:00.000Z,98651
2018-05-31T22:26:00.000Z,98654
2018-05-31T22:31:00.000Z,98649
2018-05-31T22:36:00.000Z,98647
2018-05-31T22:41:00.000Z,98646
2018-05-31T22:46:00.000Z,98650
2018-05-31T22:51:00.000Z,98648
2018-05-31T22:56:00.000Z,98644
2018-05-31T23:01:00.000Z,98650
2018-05-31T23:06:00.000Z,98651
2018-05-31T23:11:00.000Z,98654
2018-05-31T23:16:00.000Z,98652
2018-05-31T23:21:00.000Z,98652
2018-05-31T23:26:00.000Z,98652
2018-05-31T23:32:00.000Z,98654
2018-05-31T23:37:00.000Z,98647
2018-05-31T23:42:00.000Z,98657
2018-05-31T23:47:00.000Z,98660
2018-05-31T23:52:00.000Z,98652
2018-05-31T23:57:00.000Z,98657
